logo
Search for airport 
image banner adimage banner adimage banner ad
image banner ad

ULWC - Cherepovets

Located in Cherepovets, Russian Federation

ICAO - , IATA - CEE

Data provided by Airmate  

General information

Coordinates: N59°16'34" E38°1'8"
Elevation is 377 feet MSL.
 
View others Airports in Vologda Oblast

Operational data

Special qualification required
Current time UTC:
Current local time:
Weather
METAR: ULWC 251530Z 10004MPS 9999 FEW033 23/09 Q1010 R21/010060 NOSIG RMK QFE748/0997
TAF: TAF ULWC 251400Z 2515/2524 07003G08MPS 9999 BKN017 TEMPO 2515/2524 10003G09MPS SCT015CB PROB40 TEMPO 2515/2518 -TSRA BKN015CB
View NOTAMs / SUP AIP / TFR affecting this airport [VIEW]
Communications frequencies: [VIEW]

Runways:

RWY identifierQFULength (ft)Width (ft)SurfaceLDA (ft)
0342°8278138UNK
21222°8278138UNK

Airport contact information

Address: Cherepovets Russian Federation

Satellite view of ULWC